Time;durP1;ratioP1;P1;durP2;ratioP2;P2;SDS_P1;SDS_P2;PMS_P1;PMS_P2;Temp;Humidity;BMP_temperature;BMP_pressure;BME280_temperature;BME280_humidity;BME280_pressure;Samples;Min_cycle;Max_cycle;Signal;HPM_P1;HPM_P2
2023/04/05 00:01:06;;;;;;;7.20;4.90;;;;;;;;;;4797420;29;20050;-81
2023/04/05 00:03:53;;;;;;;3.92;2.95;;;;;;;;;;4799017;29;20038;-82
2023/04/05 00:06:42;;;;;;;3.88;3.35;;;;;;;;;;4799720;29;20055;-82
2023/04/05 00:09:28;;;;;;;10.77;6.30;;;;;;;;;;4812176;29;20062;-82
2023/04/05 00:12:13;;;;;;;8.93;4.90;;;;;;;;;;4811800;29;20413;-83
2023/04/05 00:14:59;;;;;;;4.97;3.55;;;;;;;;;;4812529;29;20054;-81
2023/04/05 00:17:46;;;;;;;14.98;6.93;;;;;;;;;;4811940;29;20055;-81
2023/04/05 00:20:32;;;;;;;7.28;4.53;;;;;;;;;;4805355;29;20400;-81
2023/04/05 00:23:20;;;;;;;13.68;6.57;;;;;;;;;;4799844;29;20694;-81
2023/04/05 00:26:08;;;;;;;7.35;4.60;;;;;;;;;;4802034;29;20050;-82
2023/04/05 00:28:55;;;;;;;2.95;2.28;;;;;;;;;;4797860;29;20054;-83
2023/04/05 00:31:41;;;;;;;3.97;3.35;;;;;;;;;;4805012;29;20404;-80
2023/04/05 00:34:27;;;;;;;9.07;5.15;;;;;;;;;;4804168;29;20050;-82
2023/04/05 00:37:12;;;;;;;17.30;8.15;;;;;;;;;;4804840;29;20050;-83
2023/04/05 00:39:58;;;;;;;13.30;5.45;;;;;;;;;;4812097;29;20051;-82
2023/04/05 00:42:43;;;;;;;5.15;3.53;;;;;;;;;;4805074;29;20062;-81
2023/04/05 00:45:28;;;;;;;8.30;5.28;;;;;;;;;;4797714;29;20039;-81
2023/04/05 00:48:17;;;;;;;4.28;3.35;;;;;;;;;;4812283;29;20046;-82
2023/04/05 00:51:03;;;;;;;2.00;1.90;;;;;;;;;;4798377;29;20047;-82
2023/04/05 00:53:51;;;;;;;5.47;3.72;;;;;;;;;;4811969;29;20400;-82
2023/04/05 00:56:36;;;;;;;3.05;2.80;;;;;;;;;;4804265;29;20054;-83
2023/04/05 00:59:21;;;;;;;4.32;3.35;;;;;;;;;;4810548;29;20050;-83
2023/04/05 01:02:17;;;;;;;6.07;4.60;;;;;;;;;;4804639;29;20043;-83
2023/04/05 01:05:20;;;;;;;8.45;5.65;;;;;;;;;;4798689;29;20492;-82
2023/04/05 01:08:31;;;;;;;6.20;4.63;;;;;;;;;;4811757;29;21317;-82
2023/04/05 01:11:17;;;;;;;6.35;4.28;;;;;;;;;;4816592;29;20062;-83
2023/04/05 01:14:03;;;;;;;8.07;5.35;;;;;;;;;;4791039;29;20050;-83
2023/04/05 01:16:56;;;;;;;5.60;3.35;;;;;;;;;;4800888;29;20047;-83
2023/04/05 01:19:46;;;;;;;3.72;2.65;;;;;;;;;;4803343;29;20054;-83
2023/04/05 01:22:47;;;;;;;7.32;4.50;;;;;;;;;;4810422;29;20408;-82
2023/04/05 01:25:51;;;;;;;3.38;2.42;;;;;;;;;;4813749;29;20055;-82
2023/04/05 01:28:52;;;;;;;5.37;2.60;;;;;;;;;;4806704;29;20490;-82
2023/04/05 01:31:50;;;;;;;3.78;2.83;;;;;;;;;;4806686;29;20054;-82
2023/04/05 01:34:42;;;;;;;2.15;1.85;;;;;;;;;;4807349;29;20405;-81
2023/04/05 01:37:31;;;;;;;6.10;3.95;;;;;;;;;;4794498;29;20066;-82
2023/04/05 01:40:17;;;;;;;2.78;2.40;;;;;;;;;;4801443;29;20050;-83
2023/04/05 01:43:12;;;;;;;5.55;4.07;;;;;;;;;;4802030;29;20076;-83
2023/04/05 01:45:57;;;;;;;;;;;;;;;;;;4802102;29;20050;-82
2023/04/05 01:48:43;;;;;;;6.85;4.20;;;;;;;;;;4800841;29;19916;-83
2023/04/05 01:51:29;;;;;;;7.97;5.20;;;;;;;;;;4800508;29;20043;-82
2023/04/05 01:54:14;;;;;;;8.65;5.78;;;;;;;;;;4794359;29;20054;-82
2023/04/05 01:57:01;;;;;;;208.65;93.93;;;;;;;;;;4799499;29;20059;-80
2023/04/05 01:59:47;;;;;;;36.47;16.92;;;;;;;;;;4800691;29;20050;-82
2023/04/05 02:02:32;;;;;;;72.55;27.73;;;;;;;;;;4801588;29;20043;-81
2023/04/05 02:05:18;;;;;;;217.63;99.70;;;;;;;;;;4800850;29;20489;-80
2023/04/05 02:08:04;;;;;;;41.78;21.33;;;;;;;;;;4800160;29;20047;-81
2023/04/05 02:10:52;;;;;;;51.90;26.55;;;;;;;;;;4799952;29;20058;-81
2023/04/05 02:13:38;;;;;;;226.98;119.60;;;;;;;;;;4799156;29;20050;-81
2023/04/05 02:16:25;;;;;;;128.43;89.25;;;;;;;;;;4798694;29;20497;-81
2023/04/05 02:19:12;;;;;;;127.50;73.07;;;;;;;;;;4797341;29;20490;-81
2023/04/05 02:21:57;;;;;;;28.48;19.58;;;;;;;;;;4790772;29;20051;-81
2023/04/05 02:24:45;;;;;;;5.80;4.00;;;;;;;;;;4800078;29;20054;-81
2023/04/05 02:27:31;;;;;;;5.90;4.85;;;;;;;;;;4773209;30;20051;-81
2023/04/05 02:30:20;;;;;;;3.30;2.85;;;;;;;;;;4779407;30;20047;-81
2023/04/05 02:33:05;;;;;;;7.07;4.63;;;;;;;;;;4781529;30;20055;-82
2023/04/05 02:35:54;;;;;;;8.18;5.82;;;;;;;;;;4780733;29;20055;-81
2023/04/05 02:38:39;;;;;;;7.15;5.72;;;;;;;;;;4786389;30;20047;-81
2023/04/05 02:41:25;;;;;;;109.07;66.88;;;;;;;;;;4787029;30;20055;-81
2023/04/05 02:44:11;;;;;;;6.97;4.55;;;;;;;;;;4777710;30;20063;-81
2023/04/05 02:46:59;;;;;;;8.07;5.55;;;;;;;;;;4785002;29;20413;-82
2023/04/05 02:49:50;;;;;;;6.97;5.55;;;;;;;;;;4784770;29;20047;-81
2023/04/05 02:52:39;;;;;;;17.92;5.80;;;;;;;;;;4783895;29;20055;-82
2023/04/05 02:55:25;;;;;;;7.05;4.95;;;;;;;;;;4772243;29;20601;-82
2023/04/05 02:58:14;;;;;;;8.40;5.88;;;;;;;;;;4773144;29;20058;-82
2023/04/05 03:01:07;;;;;;;10.45;6.53;;;;;;;;;;4785493;29;20433;-81
2023/04/05 03:03:55;;;;;;;9.60;5.90;;;;;;;;;;4785393;29;20048;-81
2023/04/05 03:06:45;;;;;;;9.18;5.68;;;;;;;;;;4784373;29;20067;-81
2023/04/05 03:09:32;;;;;;;3.50;3.10;;;;;;;;;;4773115;29;20051;-81
2023/04/05 03:12:22;;;;;;;10.25;6.43;;;;;;;;;;4785084;29;20063;-82
2023/04/05 03:15:09;;;;;;;8.20;6.15;;;;;;;;;;4772912;29;20055;-81
2023/04/05 03:17:58;;;;;;;6.38;4.75;;;;;;;;;;4773611;29;20059;-81
2023/04/05 03:20:44;;;;;;;8.68;6.78;;;;;;;;;;4784828;29;20072;-82
2023/04/05 03:23:35;;;;;;;10.20;7.18;;;;;;;;;;4785061;29;20063;-82
2023/04/05 03:26:23;;;;;;;7.97;5.75;;;;;;;;;;4768587;30;20480;-81
2023/04/05 03:29:11;;;;;;;6.60;4.38;;;;;;;;;;4784702;29;20047;-83
2023/04/05 03:31:58;;;;;;;3.95;3.55;;;;;;;;;;4773703;29;20047;-80
2023/04/05 03:34:44;;;;;;;10.45;5.95;;;;;;;;;;4772722;29;20055;-81
2023/04/05 03:37:31;;;;;;;9.57;5.70;;;;;;;;;;4772641;29;20051;-82
2023/04/05 03:40:24;;;;;;;7.22;5.22;;;;;;;;;;4784335;29;20047;-83
2023/04/05 03:43:10;;;;;;;14.95;8.90;;;;;;;;;;4784318;29;20043;-81
2023/04/05 03:45:55;;;;;;;11.00;8.23;;;;;;;;;;4784803;29;20047;-81
2023/04/05 03:48:42;;;;;;;12.98;6.78;;;;;;;;;;4784302;29;20413;-82
2023/04/05 03:51:28;;;;;;;11.02;7.32;;;;;;;;;;4784887;29;20051;-82
2023/04/05 03:54:15;;;;;;;10.65;7.93;;;;;;;;;;4786353;30;20409;-83
2023/04/05 03:57:01;;;;;;;12.52;8.35;;;;;;;;;;4786624;30;20055;-80
2023/04/05 03:59:48;;;;;;;11.50;7.53;;;;;;;;;;4782390;29;20639;-81
2023/04/05 04:02:33;;;;;;;15.15;10.88;;;;;;;;;;4772082;29;20413;-80
2023/04/05 04:05:20;;;;;;;17.42;11.23;;;;;;;;;;4784065;29;20055;-80
2023/04/05 04:08:11;;;;;;;15.65;10.88;;;;;;;;;;4766915;29;20051;-81
2023/04/05 04:10:57;;;;;;;17.70;10.00;;;;;;;;;;4784329;29;20482;-81
2023/04/05 04:13:45;;;;;;;13.07;8.98;;;;;;;;;;4784422;29;20047;-79
2023/04/05 04:16:40;;;;;;;14.02;7.78;;;;;;;;;;4783523;29;20051;-80
2023/04/05 04:19:58;;;;;;;9.75;7.50;;;;;;;;;;4767397;30;20039;-80
2023/04/05 04:23:13;;;;;;;3.63;3.00;;;;;;;;;;4770429;30;20048;-80
2023/04/05 04:26:25;;;;;;;8.88;5.47;;;;;;;;;;4793327;29;20051;-81
2023/04/05 04:29:37;;;;;;;12.65;6.57;;;;;;;;;;4782085;29;20095;-81
2023/04/05 04:32:52;;;;;;;;;;;;;;;;;;4792492;29;20054;-81
2023/04/05 04:35:46;;;;;;;9.80;6.97;;;;;;;;;;4810319;29;19916;-82
2023/04/05 04:38:34;;;;;;;12.05;6.30;;;;;;;;;;4804036;29;20050;-81
2023/04/05 04:41:45;;;;;;;11.15;7.28;;;;;;;;;;4804470;29;20065;-81
2023/04/05 04:44:57;;;;;;;11.02;7.47;;;;;;;;;;4810474;29;20496;-80
2023/04/05 04:48:04;;;;;;;13.57;5.95;;;;;;;;;;4809460;29;20059;-80
2023/04/05 04:51:07;;;;;;;8.85;6.20;;;;;;;;;;4807768;29;20055;-81
2023/04/05 04:53:54;;;;;;;12.63;7.57;;;;;;;;;;4801535;29;20462;-81
2023/04/05 04:56:38;;;;;;;;;;;;;;;;;;4807563;29;20054;-82
2023/04/05 04:59:23;;;;;;;11.93;6.75;;;;;;;;;;4793340;29;19921;-81
2023/04/05 05:02:09;;;;;;;12.02;7.28;;;;;;;;;;4793668;29;20043;-82
2023/04/05 05:04:55;;;;;;;12.10;7.93;;;;;;;;;;4799657;29;20392;-82
2023/04/05 05:07:41;;;;;;;11.57;7.03;;;;;;;;;;4799314;29;20497;-80
2023/04/05 05:10:27;;;;;;;21.02;7.95;;;;;;;;;;4807065;29;20059;-81
2023/04/05 05:13:20;;;;;;;12.35;7.22;;;;;;;;;;4798291;29;20059;-81
2023/04/05 05:16:08;;;;;;;12.40;7.45;;;;;;;;;;4806215;29;20050;-80
2023/04/05 05:18:54;;;;;;;13.18;7.93;;;;;;;;;;4806833;29;20054;-80
2023/04/05 05:21:41;;;;;;;20.85;9.82;;;;;;;;;;4798829;29;20055;-81
2023/04/05 05:24:27;;;;;;;6.55;4.50;;;;;;;;;;4803266;29;20050;-80
2023/04/05 05:27:13;;;;;;;14.38;7.07;;;;;;;;;;4784173;29;20477;-82
2023/04/05 05:29:59;;;;;;;5.05;4.32;;;;;;;;;;4798182;29;20050;-78
2023/04/05 05:32:44;;;;;;;19.27;10.48;;;;;;;;;;4806507;29;20062;-78
2023/04/05 05:35:29;;;;;;;10.75;5.22;;;;;;;;;;4805819;29;20047;-79
2023/04/05 05:38:15;;;;;;;7.38;4.35;;;;;;;;;;4792245;29;20412;-77
2023/04/05 05:41:01;;;;;;;14.35;7.53;;;;;;;;;;4793213;29;20055;-78
2023/04/05 05:43:46;;;;;;;7.15;5.35;;;;;;;;;;4806618;29;20047;-78
2023/04/05 05:46:32;;;;;;;9.23;6.30;;;;;;;;;;4806428;29;20062;-78
2023/04/05 05:49:17;;;;;;;14.40;8.10;;;;;;;;;;4807089;29;20046;-79
2023/04/05 05:52:03;;;;;;;5.13;4.05;;;;;;;;;;4806559;29;20050;-79
2023/04/05 05:54:48;;;;;;;10.23;7.35;;;;;;;;;;4806646;29;20501;-79
2023/04/05 05:57:33;;;;;;;11.40;6.47;;;;;;;;;;4786232;29;20059;-79
2023/04/05 06:00:19;;;;;;;17.17;10.02;;;;;;;;;;4806268;29;20059;-79
2023/04/05 06:03:04;;;;;;;17.55;11.32;;;;;;;;;;4792932;29;20047;-79
2023/04/05 06:05:58;;;;;;;16.55;10.52;;;;;;;;;;4799270;29;20432;-80
2023/04/05 06:08:43;;;;;;;15.32;10.50;;;;;;;;;;4806364;29;20051;-79
2023/04/05 06:11:28;;;;;;;24.30;13.27;;;;;;;;;;4809081;29;20047;-80
2023/04/05 06:14:14;;;;;;;21.27;13.25;;;;;;;;;;4802386;29;20059;-80
2023/04/05 06:16:59;;;;;;;21.05;12.80;;;;;;;;;;4810514;29;20051;-80
2023/04/05 06:19:45;;;;;;;23.23;11.32;;;;;;;;;;4810437;29;20059;-79
2023/04/05 06:22:32;;;;;;;21.55;12.30;;;;;;;;;;4809804;29;20430;-80
2023/04/05 06:25:17;;;;;;;22.90;12.45;;;;;;;;;;4813227;29;20504;-79
2023/04/05 06:28:04;;;;;;;27.30;14.93;;;;;;;;;;4828020;29;20046;-79
2023/04/05 06:30:49;;;;;;;41.90;19.30;;;;;;;;;;4828380;29;20050;-80
2023/04/05 06:33:34;;;;;;;45.95;22.38;;;;;;;;;;4827801;29;20054;-80
2023/04/05 06:36:19;;;;;;;30.65;16.25;;;;;;;;;;4820219;29;20046;-80
2023/04/05 06:39:05;;;;;;;15.25;8.07;;;;;;;;;;4807839;29;20055;-80
2023/04/05 06:41:50;;;;;;;20.38;10.07;;;;;;;;;;4827496;29;20062;-80
2023/04/05 06:44:38;;;;;;;14.30;9.63;;;;;;;;;;4819833;29;20417;-79
2023/04/05 06:47:23;;;;;;;8.30;5.03;;;;;;;;;;4820132;29;20050;-78
2023/04/05 06:50:09;;;;;;;6.40;3.92;;;;;;;;;;4827465;29;20047;-80
2023/04/05 06:52:54;;;;;;;8.77;5.10;;;;;;;;;;4827264;29;20054;-81
2023/04/05 06:55:41;;;;;;;7.88;4.80;;;;;;;;;;4826893;29;20046;-79
2023/04/05 06:58:27;;;;;;;28.00;10.60;;;;;;;;;;4827533;29;20054;-79
2023/04/05 07:01:11;;;;;;;10.57;4.88;;;;;;;;;;4814160;29;20050;-81
2023/04/05 07:03:56;;;;;;;10.90;5.82;;;;;;;;;;4827030;29;20054;-80
2023/04/05 07:06:42;;;;;;;10.90;6.88;;;;;;;;;;4827343;29;20042;-79
2023/04/05 07:09:29;;;;;;;12.02;6.97;;;;;;;;;;4819578;29;20488;-79
2023/04/05 07:12:15;;;;;;;14.13;8.60;;;;;;;;;;4827806;29;20050;-78
2023/04/05 07:15:01;;;;;;;8.20;5.07;;;;;;;;;;4827151;29;20466;-77
2023/04/05 07:17:46;;;;;;;5.15;3.72;;;;;;;;;;4826918;29;20046;-79
2023/04/05 07:20:32;;;;;;;8.30;3.78;;;;;;;;;;4827309;29;20046;-81
2023/04/05 07:23:17;;;;;;;6.05;4.85;;;;;;;;;;4812038;29;20042;-78
2023/04/05 07:26:06;;;;;;;19.00;8.68;;;;;;;;;;4816554;29;20054;-80
2023/04/05 07:28:52;;;;;;;19.08;8.40;;;;;;;;;;4813732;29;20054;-81
2023/04/05 07:31:38;;;;;;;7.35;5.65;;;;;;;;;;4819217;29;20054;-80
2023/04/05 07:34:24;;;;;;;11.55;6.28;;;;;;;;;;4819441;29;20046;-79
2023/04/05 07:37:09;;;;;;;8.18;5.72;;;;;;;;;;4813301;29;20489;-79
2023/04/05 07:39:54;;;;;;;12.52;5.93;;;;;;;;;;4827110;29;20054;-79
2023/04/05 07:42:40;;;;;;;2.67;2.47;;;;;;;;;;4827102;29;20046;-78
2023/04/05 07:45:26;;;;;;;6.75;4.03;;;;;;;;;;4813009;29;20050;-80
2023/04/05 07:48:10;;;;;;;12.50;7.00;;;;;;;;;;4826623;29;20054;-80
2023/04/05 07:51:01;;;;;;;4.88;3.05;;;;;;;;;;4827007;29;20054;-79
2023/04/05 07:53:45;;;;;;;4.65;3.13;;;;;;;;;;4826449;29;20058;-80
2023/04/05 07:56:31;;;;;;;6.05;3.50;;;;;;;;;;4826868;29;20241;-78
2023/04/05 07:59:16;;;;;;;5.25;3.55;;;;;;;;;;4826441;29;20408;-79
2023/04/05 08:02:02;;;;;;;5.97;3.78;;;;;;;;;;4826549;29;20055;-80
2023/04/05 08:04:47;;;;;;;9.85;6.20;;;;;;;;;;4812748;29;20046;-78
2023/04/05 08:07:32;;;;;;;8.15;4.53;;;;;;;;;;4818493;29;20059;-79
2023/04/05 08:10:17;;;;;;;14.63;7.07;;;;;;;;;;4826336;29;20054;-80
2023/04/05 08:13:04;;;;;;;11.45;6.40;;;;;;;;;;4826217;29;20050;-78
2023/04/05 08:15:49;;;;;;;3.80;2.67;;;;;;;;;;4826637;29;20050;-82
2023/04/05 08:18:35;;;;;;;15.80;8.52;;;;;;;;;;4826056;29;20042;-78
2023/04/05 08:21:21;;;;;;;3.60;2.88;;;;;;;;;;4818280;29;20051;-79
2023/04/05 08:24:06;;;;;;;12.95;5.90;;;;;;;;;;4824943;29;20485;-80
2023/04/05 08:26:52;;;;;;;22.75;6.00;;;;;;;;;;4825759;29;20051;-79
2023/04/05 08:29:37;;;;;;;6.15;4.45;;;;;;;;;;4805689;29;20062;-78
2023/04/05 08:32:23;;;;;;;3.75;3.08;;;;;;;;;;4826492;29;20054;-80
2023/04/05 08:35:08;;;;;;;10.77;7.07;;;;;;;;;;4823929;29;20396;-80
2023/04/05 08:37:53;;;;;;;14.40;7.63;;;;;;;;;;4818319;29;20054;-79
2023/04/05 08:40:43;;;;;;;6.20;4.45;;;;;;;;;;4825879;29;20058;-78
2023/04/05 08:44:04;;;;;;;9.50;5.72;;;;;;;;;;4825800;29;20409;-78
2023/04/05 08:46:49;;;;;;;10.82;5.75;;;;;;;;;;4825519;29;20046;-79
2023/04/05 08:49:34;;;;;;;4.97;3.65;;;;;;;;;;4825188;29;20046;-78
2023/04/05 08:52:20;;;;;;;10.80;6.32;;;;;;;;;;4825797;29;20408;-77
2023/04/05 08:55:07;;;;;;;15.90;6.35;;;;;;;;;;4825346;29;20054;-78
2023/04/05 08:57:58;;;;;;;8.20;4.35;;;;;;;;;;4806660;29;20058;-79
2023/04/05 09:00:43;;;;;;;7.50;4.10;;;;;;;;;;4807277;29;20050;-77
2023/04/05 09:03:34;;;;;;;8.88;4.63;;;;;;;;;;4799409;29;20426;-78
2023/04/05 09:06:21;;;;;;;11.38;5.28;;;;;;;;;;4807100;29;20042;-78
2023/04/05 09:09:07;;;;;;;8.38;5.60;;;;;;;;;;4807127;29;20050;-78
2023/04/05 09:11:52;;;;;;;11.95;4.82;;;;;;;;;;4807237;29;20063;-78
2023/04/05 09:14:38;;;;;;;14.88;7.28;;;;;;;;;;4807463;29;20054;-78
2023/04/05 09:17:24;;;;;;;6.28;4.38;;;;;;;;;;4806926;29;20055;-78
2023/04/05 09:20:08;;;;;;;7.35;4.85;;;;;;;;;;4793981;29;20054;-77
2023/04/05 09:22:55;;;;;;;7.80;4.97;;;;;;;;;;4807114;29;20051;-79
2023/04/05 09:25:42;;;;;;;10.57;5.10;;;;;;;;;;4806997;29;20481;-79
2023/04/05 09:28:40;;;;;;;6.15;4.30;;;;;;;;;;4806610;29;20051;-78
2023/04/05 09:31:33;;;;;;;7.40;4.35;;;;;;;;;;4799085;29;20058;-78
2023/04/05 09:34:20;;;;;;;7.00;5.20;;;;;;;;;;4807149;29;20054;-78
2023/04/05 09:37:18;;;;;;;7.82;5.03;;;;;;;;;;4806569;29;20058;-78
2023/04/05 09:40:05;;;;;;;6.45;4.65;;;;;;;;;;4806313;29;20051;-78
2023/04/05 09:42:52;;;;;;;7.32;4.72;;;;;;;;;;4806759;29;20512;-77
2023/04/05 09:45:44;;;;;;;40.75;20.42;;;;;;;;;;4805860;29;20043;-78
2023/04/05 09:48:50;;;;;;;57.72;24.38;;;;;;;;;;4806660;29;20055;-78
2023/04/05 09:51:37;;;;;;;8.27;4.03;;;;;;;;;;4806194;29;20485;-78
2023/04/05 09:54:25;;;;;;;7.57;5.43;;;;;;;;;;4798009;29;20054;-77
2023/04/05 09:57:10;;;;;;;6.97;3.75;;;;;;;;;;4806900;29;20409;-77
2023/04/05 09:59:55;;;;;;;9.40;5.60;;;;;;;;;;4806620;29;20050;-77
2023/04/05 10:02:41;;;;;;;8.02;4.43;;;;;;;;;;4806501;29;20047;-79
2023/04/05 10:05:27;;;;;;;5.25;4.00;;;;;;;;;;4798767;29;20050;-78
2023/04/05 10:08:15;;;;;;;11.93;6.03;;;;;;;;;;4806074;29;20436;-77
2023/04/05 10:11:04;;;;;;;5.45;3.28;;;;;;;;;;4806482;29;20050;-77
2023/04/05 10:13:50;;;;;;;7.68;5.57;;;;;;;;;;4806389;29;20054;-78
2023/04/05 10:16:58;;;;;;;3.35;2.65;;;;;;;;;;4806087;29;20401;-77
2023/04/05 10:20:08;;;;;;;3.63;2.90;;;;;;;;;;4806952;29;20474;-78
2023/04/05 10:23:00;;;;;;;8.07;5.18;;;;;;;;;;4806214;29;20047;-79
2023/04/05 10:25:52;;;;;;;6.85;4.80;;;;;;;;;;4791983;29;20055;-79
2023/04/05 10:28:42;;;;;;;6.38;4.18;;;;;;;;;;4806313;29;20058;-78
2023/04/05 10:31:30;;;;;;;10.73;6.50;;;;;;;;;;4806292;29;20482;-77
2023/04/05 10:34:32;;;;;;;18.95;7.50;;;;;;;;;;4806599;29;20054;-77
2023/04/05 10:37:40;;;;;;;10.82;4.85;;;;;;;;;;4805767;29;20095;-78
2023/04/05 10:40:29;;;;;;;6.32;4.68;;;;;;;;;;4806521;29;20117;-78
2023/04/05 10:43:19;;;;;;;9.77;6.00;;;;;;;;;;4806087;29;20055;-77
2023/04/05 10:46:06;;;;;;;9.02;5.32;;;;;;;;;;4806000;29;20047;-79
2023/04/05 10:49:01;;;;;;;18.45;4.43;;;;;;;;;;4805692;29;20059;-80
2023/04/05 10:51:47;;;;;;;13.52;7.22;;;;;;;;;;4805877;29;20484;-78
2023/04/05 10:54:35;;;;;;;5.97;3.78;;;;;;;;;;4805690;29;20059;-77
2023/04/05 10:57:21;;;;;;;16.00;7.28;;;;;;;;;;4806185;29;20058;-78
2023/04/05 11:00:09;;;;;;;7.68;4.95;;;;;;;;;;4809593;29;20058;-76
2023/04/05 11:02:55;;;;;;;8.57;4.50;;;;;;;;;;4809359;29;20051;-78
2023/04/05 11:05:42;;;;;;;6.97;4.70;;;;;;;;;;4808684;29;20047;-78
2023/04/05 11:08:27;;;;;;;9.18;3.33;;;;;;;;;;4809526;29;20055;-79
2023/04/05 11:11:15;;;;;;;8.50;4.88;;;;;;;;;;4809148;29;20054;-80
2023/04/05 11:14:25;;;;;;;9.70;5.13;;;;;;;;;;4808243;29;20421;-78
2023/04/05 11:17:40;;;;;;;13.07;4.68;;;;;;;;;;4809085;29;20043;-78
2023/04/05 11:20:25;;;;;;;12.15;4.90;;;;;;;;;;4804280;29;20054;-79
2023/04/05 11:23:12;;;;;;;9.60;4.00;;;;;;;;;;4809096;29;20412;-79
2023/04/05 11:26:04;;;;;;;4.20;3.53;;;;;;;;;;4807988;29;20058;-77
2023/04/05 11:28:56;;;;;;;9.60;3.72;;;;;;;;;;4809338;29;20046;-80
2023/04/05 11:32:00;;;;;;;4.43;3.25;;;;;;;;;;4801374;29;20058;-78
2023/04/05 11:35:23;;;;;;;7.35;4.60;;;;;;;;;;4809007;29;20058;-79
2023/04/05 11:38:20;;;;;;;6.35;3.35;;;;;;;;;;4788235;29;20405;-79
2023/04/05 11:41:16;;;;;;;28.73;10.82;;;;;;;;;;4808464;29;20054;-78
2023/04/05 11:44:04;;;;;;;7.30;4.35;;;;;;;;;;4808665;29;20437;-80
2023/04/05 11:46:50;;;;;;;11.05;5.55;;;;;;;;;;4808443;29;20063;-80
2023/04/05 11:49:37;;;;;;;4.10;3.05;;;;;;;;;;4808965;29;20043;-79
2023/04/05 11:52:23;;;;;;;14.57;6.30;;;;;;;;;;4808759;29;20409;-80
2023/04/05 11:55:10;;;;;;;5.60;3.80;;;;;;;;;;4807755;29;20067;-79
2023/04/05 11:57:55;;;;;;;6.38;3.40;;;;;;;;;;4808433;29;20071;-79
2023/04/05 12:00:42;;;;;;;6.65;3.63;;;;;;;;;;4800789;29;20063;-77
2023/04/05 12:03:28;;;;;;;7.35;3.65;;;;;;;;;;4808387;29;20047;-78
2023/04/05 12:06:14;;;;;;;11.32;5.18;;;;;;;;;;4808265;29;20047;-78
2023/04/05 12:08:59;;;;;;;9.77;4.90;;;;;;;;;;4807835;29;20047;-79
2023/04/05 12:11:45;;;;;;;7.10;4.50;;;;;;;;;;4807857;29;20051;-78
2023/04/05 12:14:31;;;;;;;7.13;4.43;;;;;;;;;;4808192;29;20063;-79
2023/04/05 12:17:16;;;;;;;4.68;2.42;;;;;;;;;;4808219;29;20047;-79
2023/04/05 12:20:02;;;;;;;6.60;4.18;;;;;;;;;;4808170;29;20058;-79
2023/04/05 12:22:48;;;;;;;9.95;4.70;;;;;;;;;;4807792;29;20051;-79
2023/04/05 12:25:37;;;;;;;20.95;9.45;;;;;;;;;;4793387;29;20067;-78
2023/04/05 12:28:23;;;;;;;8.63;5.00;;;;;;;;;;4807918;29;20054;-78
2023/04/05 12:31:10;;;;;;;15.35;7.18;;;;;;;;;;4808052;29;20381;-79
2023/04/05 12:33:58;;;;;;;5.43;3.95;;;;;;;;;;4807616;29;20047;-78
2023/04/05 12:36:45;;;;;;;6.63;3.47;;;;;;;;;;4807497;29;20050;-80
2023/04/05 12:39:32;;;;;;;11.73;6.28;;;;;;;;;;4794199;29;20062;-79
2023/04/05 12:42:16;;;;;;;7.18;4.90;;;;;;;;;;4794031;29;20043;-78
2023/04/05 12:45:10;;;;;;;11.27;5.60;;;;;;;;;;4807620;29;20061;-79
2023/04/05 12:47:58;;;;;;;11.43;5.70;;;;;;;;;;4807934;29;20051;-78
2023/04/05 12:50:46;;;;;;;12.88;6.43;;;;;;;;;;4806413;29;20139;-79
2023/04/05 12:53:32;;;;;;;9.80;5.22;;;;;;;;;;4807078;29;20489;-79
2023/04/05 12:56:17;;;;;;;12.90;6.38;;;;;;;;;;4807162;29;20077;-79
2023/04/05 12:59:05;;;;;;;10.60;5.25;;;;;;;;;;4807689;29;20058;-79
2023/04/05 13:01:50;;;;;;;6.60;3.95;;;;;;;;;;4799782;29;20046;-79
2023/04/05 13:04:36;;;;;;;10.82;5.13;;;;;;;;;;4799264;29;20050;-78
2023/04/05 13:07:21;;;;;;;5.10;3.85;;;;;;;;;;4807325;29;20051;-78
2023/04/05 13:10:07;;;;;;;6.85;4.00;;;;;;;;;;4807139;29;20055;-77
2023/04/05 13:12:51;;;;;;;6.70;4.05;;;;;;;;;;4815184;29;20050;-78
2023/04/05 13:15:36;;;;;;;5.13;2.60;;;;;;;;;;4825555;29;20051;-77
2023/04/05 13:18:22;;;;;;;16.00;7.63;;;;;;;;;;4813541;29;20055;-79
2023/04/05 13:21:08;;;;;;;12.35;5.03;;;;;;;;;;4809116;29;20054;-78
2023/04/05 13:23:54;;;;;;;6.60;3.97;;;;;;;;;;4828523;29;20047;-78
2023/04/05 13:26:40;;;;;;;20.23;9.40;;;;;;;;;;4828836;29;20500;-77
2023/04/05 13:29:25;;;;;;;4.75;3.28;;;;;;;;;;4827093;29;20047;-77
2023/04/05 13:32:11;;;;;;;4.55;2.25;;;;;;;;;;4827822;29;20054;-78
2023/04/05 13:34:56;;;;;;;8.20;4.75;;;;;;;;;;4826960;29;20054;-79
2023/04/05 13:37:41;;;;;;;10.70;5.43;;;;;;;;;;4827760;29;20039;-78
2023/04/05 13:40:27;;;;;;;4.43;2.28;;;;;;;;;;4793829;29;20498;-79
2023/04/05 13:43:12;;;;;;;6.82;4.45;;;;;;;;;;4789415;30;20047;-78
2023/04/05 13:45:58;;;;;;;5.97;3.88;;;;;;;;;;4787992;30;20051;-80
2023/04/05 13:48:43;;;;;;;7.03;4.47;;;;;;;;;;4812912;29;20050;-79
2023/04/05 13:51:30;;;;;;;13.98;5.82;;;;;;;;;;4812727;29;20051;-79
2023/04/05 13:54:15;;;;;;;8.10;4.82;;;;;;;;;;4807906;29;20050;-79
2023/04/05 13:57:01;;;;;;;3.70;2.85;;;;;;;;;;4807028;29;20047;-79
2023/04/05 13:59:46;;;;;;;8.07;5.03;;;;;;;;;;4799464;29;20042;-79
2023/04/05 14:02:31;;;;;;;11.55;5.65;;;;;;;;;;4795473;29;20501;-79
2023/04/05 14:05:17;;;;;;;5.28;3.60;;;;;;;;;;4814583;29;20055;-78
2023/04/05 14:08:02;;;;;;;5.70;4.57;;;;;;;;;;4820447;29;20055;-80
2023/04/05 14:10:47;;;;;;;12.02;6.40;;;;;;;;;;4816820;29;20050;-79
2023/04/05 14:13:33;;;;;;;5.65;3.70;;;;;;;;;;4824212;29;20055;-77
2023/04/05 14:16:18;;;;;;;15.80;5.28;;;;;;;;;;4824465;29;20054;-77
2023/04/05 14:19:04;;;;;;;2.65;2.38;;;;;;;;;;4818122;29;20043;-77
2023/04/05 14:21:50;;;;;;;11.95;6.53;;;;;;;;;;4824031;29;20046;-78
2023/04/05 14:24:35;;;;;;;9.70;6.30;;;;;;;;;;4823999;29;20047;-77
2023/04/05 14:27:25;;;;;;;10.02;4.10;;;;;;;;;;4823124;29;20465;-78
2023/04/05 14:30:11;;;;;;;9.95;5.40;;;;;;;;;;4816836;29;20058;-80
2023/04/05 14:32:56;;;;;;;8.38;4.97;;;;;;;;;;4825639;29;20051;-78
2023/04/05 14:35:42;;;;;;;15.23;7.80;;;;;;;;;;4827643;29;20054;-78
2023/04/05 14:38:27;;;;;;;9.93;6.68;;;;;;;;;;4827922;29;20407;-79
2023/04/05 14:41:11;;;;;;;12.52;6.63;;;;;;;;;;4819704;29;20059;-79
2023/04/05 14:43:56;;;;;;;3.80;3.40;;;;;;;;;;4827631;29;20062;-78
2023/04/05 14:46:42;;;;;;;13.73;6.90;;;;;;;;;;4816881;29;20050;-79
2023/04/05 14:49:27;;;;;;;10.43;5.53;;;;;;;;;;4813590;29;20046;-78
2023/04/05 14:52:12;;;;;;;5.72;3.17;;;;;;;;;;4826809;29;20046;-79
2023/04/05 14:54:57;;;;;;;3.72;3.25;;;;;;;;;;4820918;29;20058;-80
2023/04/05 14:57:43;;;;;;;10.73;5.32;;;;;;;;;;4809592;29;20054;-80
2023/04/05 15:00:29;;;;;;;10.10;5.82;;;;;;;;;;4813320;29;20050;-78
2023/04/05 15:03:15;;;;;;;4.88;3.60;;;;;;;;;;4814612;29;20043;-79
2023/04/05 15:06:00;;;;;;;5.20;3.35;;;;;;;;;;4816160;29;20408;-80
2023/04/05 15:08:45;;;;;;;11.30;5.05;;;;;;;;;;4824255;29;20058;-80
2023/04/05 15:11:34;;;;;;;12.93;6.05;;;;;;;;;;4819028;29;20047;-80
2023/04/05 15:14:20;;;;;;;57.05;20.27;;;;;;;;;;4827144;29;20046;-79
2023/04/05 15:17:05;;;;;;;15.48;8.02;;;;;;;;;;4826913;29;20400;-79
2023/04/05 15:19:51;;;;;;;9.73;6.18;;;;;;;;;;4825297;29;20054;-80
2023/04/05 15:22:39;;;;;;;9.10;4.10;;;;;;;;;;4810316;29;20050;-79
2023/04/05 15:25:25;;;;;;;7.43;4.80;;;;;;;;;;4799869;29;20050;-79
2023/04/05 15:28:10;;;;;;;6.82;4.18;;;;;;;;;;4808745;29;20054;-79
2023/04/05 15:30:55;;;;;;;9.45;5.75;;;;;;;;;;4814178;29;20406;-79
2023/04/05 15:33:41;;;;;;;9.43;5.97;;;;;;;;;;4827156;29;20397;-79
2023/04/05 15:36:27;;;;;;;9.20;4.43;;;;;;;;;;4819248;29;20054;-78
2023/04/05 15:39:13;;;;;;;8.82;5.35;;;;;;;;;;4826389;29;20047;-79
2023/04/05 15:42:01;;;;;;;17.95;10.18;;;;;;;;;;4827144;29;20050;-77
2023/04/05 15:44:50;;;;;;;7.63;4.40;;;;;;;;;;4825743;29;20042;-78
2023/04/05 15:47:35;;;;;;;12.20;5.40;;;;;;;;;;4819044;29;20062;-78
2023/04/05 15:50:20;;;;;;;10.98;5.22;;;;;;;;;;4825496;29;20058;-78
2023/04/05 15:53:06;;;;;;;12.15;7.32;;;;;;;;;;4812613;29;20050;-78
2023/04/05 15:55:51;;;;;;;6.18;3.60;;;;;;;;;;4826683;29;20054;-78
2023/04/05 15:58:37;;;;;;;20.13;8.20;;;;;;;;;;4823569;29;20042;-80
2023/04/05 16:01:23;;;;;;;8.05;5.30;;;;;;;;;;4801169;29;20042;-82
2023/04/05 16:04:09;;;;;;;19.85;10.93;;;;;;;;;;4806518;29;20424;-79
2023/04/05 16:06:55;;;;;;;11.82;6.68;;;;;;;;;;4794488;29;20055;-79
2023/04/05 16:09:40;;;;;;;12.65;8.77;;;;;;;;;;4802949;29;20455;-78
2023/04/05 16:12:26;;;;;;;6.38;4.22;;;;;;;;;;4792420;29;20051;-79
2023/04/05 16:15:11;;;;;;;12.70;5.43;;;;;;;;;;4787813;29;20051;-78
2023/04/05 16:17:57;;;;;;;13.70;8.55;;;;;;;;;;4801207;29;20042;-79
2023/04/05 16:20:43;;;;;;;6.45;4.65;;;;;;;;;;4800964;29;20362;-79
2023/04/05 16:23:28;;;;;;;6.50;4.72;;;;;;;;;;4793621;29;20050;-79
2023/04/05 16:26:16;;;;;;;10.63;7.45;;;;;;;;;;4800357;29;20059;-78
2023/04/05 16:29:02;;;;;;;11.57;6.97;;;;;;;;;;4803299;29;20050;-78
2023/04/05 16:31:47;;;;;;;4.75;4.03;;;;;;;;;;4825801;29;20058;-77
2023/04/05 16:34:33;;;;;;;6.78;4.32;;;;;;;;;;4825456;29;20050;-78
2023/04/05 16:37:19;;;;;;;13.55;4.03;;;;;;;;;;4823514;29;20043;-77
2023/04/05 16:40:06;;;;;;;17.00;10.25;;;;;;;;;;4825849;29;20054;-79